sensor_id;sensor_type;location;lat;lon;timestamp;pressure;altitude;pressure_sealevel;temperature;humidity
14293;BME280;62290;59.420;17.842;2022-10-16T00:00:57;100206.63;;;23.51;43.57
14293;BME280;62290;59.420;17.842;2022-10-16T00:03:25;100196.56;;;23.53;43.75
14293;BME280;62290;59.420;17.842;2022-10-16T00:05:58;100207.31;;;23.53;43.68
14293;BME280;62290;59.420;17.842;2022-10-16T00:08:27;100204.78;;;23.51;43.65
14293;BME280;62290;59.420;17.842;2022-10-16T00:11:01;100199.13;;;23.54;43.55
14293;BME280;62290;59.420;17.842;2022-10-16T00:13:30;100201.09;;;23.52;43.56
14293;BME280;62290;59.420;17.842;2022-10-16T00:15:59;100197.41;;;23.53;43.59
14293;BME280;62290;59.420;17.842;2022-10-16T00:18:28;100184.09;;;23.52;43.52
14293;BME280;62290;59.420;17.842;2022-10-16T00:21:02;100186.66;;;23.53;43.59
14293;BME280;62290;59.420;17.842;2022-10-16T00:23:30;100186.66;;;23.53;43.62
14293;BME280;62290;59.420;17.842;2022-10-16T00:26:03;100179.28;;;23.55;43.60
14293;BME280;62290;59.420;17.842;2022-10-16T00:28:32;100174.34;;;23.51;43.60
14293;BME280;62290;59.420;17.842;2022-10-16T00:31:03;100173.78;;;23.57;43.52
14293;BME280;62290;59.420;17.842;2022-10-16T00:33:32;100173.03;;;23.55;43.65
14293;BME280;62290;59.420;17.842;2022-10-16T00:36:00;100183.81;;;23.55;43.59
14293;BME280;62290;59.420;17.842;2022-10-16T00:38:28;100180.13;;;23.56;43.63
14293;BME280;62290;59.420;17.842;2022-10-16T00:40:56;100181.97;;;23.55;43.64
14293;BME280;62290;59.420;17.842;2022-10-16T00:43:39;100175.63;;;23.56;43.65
14293;BME280;62290;59.420;17.842;2022-10-16T00:46:13;100172.91;;;23.56;43.41
14293;BME280;62290;59.420;17.842;2022-10-16T00:48:46;100177.28;;;23.57;43.43
14293;BME280;62290;59.420;17.842;2022-10-16T00:51:18;100180.28;;;23.54;43.49
14293;BME280;62290;59.420;17.842;2022-10-16T00:53:47;100183.50;;;23.58;43.38
14293;BME280;62290;59.420;17.842;2022-10-16T00:56:16;100181.84;;;23.57;43.26
14293;BME280;62290;59.420;17.842;2022-10-16T00:58:46;100182.66;;;23.57;43.45
14293;BME280;62290;59.420;17.842;2022-10-16T01:01:14;100170.22;;;23.56;43.33
14293;BME280;62290;59.420;17.842;2022-10-16T01:03:42;100174.59;;;23.57;43.37
14293;BME280;62290;59.420;17.842;2022-10-16T01:06:22;100182.38;;;23.60;43.46
14293;BME280;62290;59.420;17.842;2022-10-16T01:09:11;100172.63;;;23.59;43.41
14293;BME280;62290;59.420;17.842;2022-10-16T01:11:45;100179.00;;;23.58;43.40
14293;BME280;62290;59.420;17.842;2022-10-16T01:14:23;100168.41;;;23.57;43.24
14293;BME280;62290;59.420;17.842;2022-10-16T01:16:56;100159.19;;;23.59;43.34
14293;BME280;62290;59.420;17.842;2022-10-16T01:19:39;100161.88;;;23.59;43.34
14293;BME280;62290;59.420;17.842;2022-10-16T01:22:13;100170.91;;;23.58;43.27
14293;BME280;62290;59.420;17.842;2022-10-16T01:24:44;100173.50;;;23.50;43.36
14293;BME280;62290;59.420;17.842;2022-10-16T01:27:21;100190.91;;;23.56;43.20
14293;BME280;62290;59.420;17.842;2022-10-16T01:29:54;100199.53;;;23.59;43.22
14293;BME280;62290;59.420;17.842;2022-10-16T01:32:28;100198.53;;;23.60;43.22
14293;BME280;62290;59.420;17.842;2022-10-16T01:35:02;100185.22;;;23.59;43.23
14293;BME280;62290;59.420;17.842;2022-10-16T01:37:36;100192.28;;;23.60;43.24
14293;BME280;62290;59.420;17.842;2022-10-16T01:40:09;100190.44;;;23.60;43.15
14293;BME280;62290;59.420;17.842;2022-10-16T01:42:42;100194.84;;;23.61;43.21
14293;BME280;62290;59.420;17.842;2022-10-16T01:45:13;100190.72;;;23.57;43.12
14293;BME280;62290;59.420;17.842;2022-10-16T01:47:45;100195.81;;;23.60;43.22
14293;BME280;62290;59.420;17.842;2022-10-16T01:50:16;100189.47;;;23.61;43.12
14293;BME280;62290;59.420;17.842;2022-10-16T01:52:49;100185.91;;;23.61;43.10
14293;BME280;62290;59.420;17.842;2022-10-16T01:55:22;100182.09;;;23.63;43.22
14293;BME280;62290;59.420;17.842;2022-10-16T01:57:54;100174.47;;;23.59;43.14
14293;BME280;62290;59.420;17.842;2022-10-16T02:00:23;100172.31;;;23.62;43.08
14293;BME280;62290;59.420;17.842;2022-10-16T02:02:53;100170.47;;;23.63;43.11
14293;BME280;62290;59.420;17.842;2022-10-16T02:05:28;100167.66;;;23.64;43.11
14293;BME280;62290;59.420;17.842;2022-10-16T02:07:59;100176.00;;;23.61;43.13
14293;BME280;62290;59.420;17.842;2022-10-16T02:10:31;100174.03;;;23.63;43.01
14293;BME280;62290;59.420;17.842;2022-10-16T02:13:04;100174.72;;;23.65;43.00
14293;BME280;62290;59.420;17.842;2022-10-16T02:15:33;100161.56;;;23.62;43.05
14293;BME280;62290;59.420;17.842;2022-10-16T02:18:02;100167.66;;;23.64;43.06
14293;BME280;62290;59.420;17.842;2022-10-16T02:20:34;100159.19;;;23.59;42.80
14293;BME280;62290;59.420;17.842;2022-10-16T02:23:06;100174.03;;;23.63;43.09
14293;BME280;62290;59.420;17.842;2022-10-16T02:25:40;100173.03;;;23.64;42.95
14293;BME280;62290;59.420;17.842;2022-10-16T02:28:16;100204.59;;;23.62;43.06
14293;BME280;62290;59.420;17.842;2022-10-16T02:30:49;100195.81;;;23.60;43.12
14293;BME280;62290;59.420;17.842;2022-10-16T02:33:20;100196.00;;;23.59;42.93
14293;BME280;62290;59.420;17.842;2022-10-16T02:35:50;100202.34;;;23.58;43.14
14293;BME280;62290;59.420;17.842;2022-10-16T02:38:20;100208.00;;;23.55;43.20
14293;BME280;62290;59.420;17.842;2022-10-16T02:40:49;100194.72;;;23.53;43.21
14293;BME280;62290;59.420;17.842;2022-10-16T02:43:18;100189.47;;;23.52;43.28
14293;BME280;62290;59.420;17.842;2022-10-16T02:45:46;100186.25;;;23.48;43.21
14293;BME280;62290;59.420;17.842;2022-10-16T02:48:14;100188.25;;;23.46;43.23
14293;BME280;62290;59.420;17.842;2022-10-16T02:50:42;100185.56;;;23.46;43.24
14293;BME280;62290;59.420;17.842;2022-10-16T02:53:10;100175.94;;;23.44;43.13
14293;BME280;62290;59.420;17.842;2022-10-16T02:55:38;100168.00;;;23.42;43.12
14293;BME280;62290;59.420;17.842;2022-10-16T02:58:06;100169.13;;;23.40;43.27
14293;BME280;62290;59.420;17.842;2022-10-16T03:00:35;100169.13;;;23.40;43.17
14293;BME280;62290;59.420;17.842;2022-10-16T03:03:03;100160.38;;;23.38;43.38
14293;BME280;62290;59.420;17.842;2022-10-16T03:05:31;100169.53;;;23.35;43.20
14293;BME280;62290;59.420;17.842;2022-10-16T03:07:59;100172.34;;;23.33;43.27
14293;BME280;62290;59.420;17.842;2022-10-16T03:10:27;100171.66;;;23.31;43.22
14293;BME280;62290;59.420;17.842;2022-10-16T03:12:55;100166.44;;;23.30;43.35
14293;BME280;62290;59.420;17.842;2022-10-16T03:15:23;100158.50;;;23.28;43.37
14293;BME280;62290;59.420;17.842;2022-10-16T03:17:53;100154.44;;;23.24;43.25
14293;BME280;62290;59.420;17.842;2022-10-16T03:20:21;100151.47;;;23.27;43.47
14293;BME280;62290;59.420;17.842;2022-10-16T03:22:49;100152.59;;;23.25;43.38
14293;BME280;62290;59.420;17.842;2022-10-16T03:25:17;100153.56;;;23.24;43.50
14293;BME280;62290;59.420;17.842;2022-10-16T03:27:45;100146.81;;;23.20;43.69
14293;BME280;62290;59.420;17.842;2022-10-16T03:30:13;100163.75;;;23.20;43.59
14293;BME280;62290;59.420;17.842;2022-10-16T03:32:42;100161.91;;;23.21;43.46
14293;BME280;62290;59.420;17.842;2022-10-16T03:35:12;100154.88;;;23.20;43.56
14293;BME280;62290;59.420;17.842;2022-10-16T03:37:40;100148.75;;;23.18;43.60
14293;BME280;62290;59.420;17.842;2022-10-16T03:40:09;100151.44;;;23.18;43.67
14293;BME280;62290;59.420;17.842;2022-10-16T03:42:37;100153.44;;;23.16;43.70
14293;BME280;62290;59.420;17.842;2022-10-16T03:45:05;100145.38;;;23.16;43.58
14293;BME280;62290;59.420;17.842;2022-10-16T03:47:33;100143.69;;;23.15;43.60
14293;BME280;62290;59.420;17.842;2022-10-16T03:50:02;100145.66;;;23.13;43.73
14293;BME280;62290;59.420;17.842;2022-10-16T03:52:31;100144.69;;;23.14;43.89
14293;BME280;62290;59.420;17.842;2022-10-16T03:54:59;100150.22;;;23.12;43.77
14293;BME280;62290;59.420;17.842;2022-10-16T03:57:27;100152.19;;;23.10;43.75
14293;BME280;62290;59.420;17.842;2022-10-16T03:59:55;100154.88;;;23.10;43.80
14293;BME280;62290;59.420;17.842;2022-10-16T04:02:23;100142.56;;;23.08;43.76
14293;BME280;62290;59.420;17.842;2022-10-16T04:04:51;100147.94;;;23.08;43.73
14293;BME280;62290;59.420;17.842;2022-10-16T04:07:19;100151.63;;;23.07;43.89
14293;BME280;62290;59.420;17.842;2022-10-16T04:09:48;100146.25;;;23.07;43.70
14293;BME280;62290;59.420;17.842;2022-10-16T04:12:18;100138.31;;;23.05;43.77
14293;BME280;62290;59.420;17.842;2022-10-16T04:14:46;100135.78;;;23.04;43.92
14293;BME280;62290;59.420;17.842;2022-10-16T04:17:14;100139.47;;;23.03;43.85
14293;BME280;62290;59.420;17.842;2022-10-16T04:19:42;100144.84;;;23.03;43.94
14293;BME280;62290;59.420;17.842;2022-10-16T04:22:11;100135.09;;;23.02;43.78
14293;BME280;62290;59.420;17.842;2022-10-16T04:24:39;100133.38;;;23.01;43.72
14293;BME280;62290;59.420;17.842;2022-10-16T04:27:09;100138.75;;;23.01;43.75
14293;BME280;62290;59.420;17.842;2022-10-16T04:29:37;100147.97;;;22.98;43.81
14293;BME280;62290;59.420;17.842;2022-10-16T04:32:05;100162.38;;;22.97;43.91
14293;BME280;62290;59.420;17.842;2022-10-16T04:34:32;100166.94;;;22.97;43.93
14293;BME280;62290;59.420;17.842;2022-10-16T04:37:01;100158.00;;;22.96;43.92
14293;BME280;62290;59.420;17.842;2022-10-16T04:39:29;100155.44;;;22.95;43.86
14293;BME280;62290;59.420;17.842;2022-10-16T04:41:57;100156.47;;;22.94;43.85
14293;BME280;62290;59.420;17.842;2022-10-16T04:44:26;100153.78;;;22.94;43.99
14293;BME280;62290;59.420;17.842;2022-10-16T04:46:54;100153.91;;;22.92;43.85
14293;BME280;62290;59.420;17.842;2022-10-16T04:49:22;100155.88;;;22.90;43.94
14293;BME280;62290;59.420;17.842;2022-10-16T04:51:50;100149.66;;;22.90;43.93
14293;BME280;62290;59.420;17.842;2022-10-16T04:54:18;100147.81;;;22.90;44.00
14293;BME280;62290;59.420;17.842;2022-10-16T04:56:46;100143.44;;;22.89;44.01
14293;BME280;62290;59.420;17.842;2022-10-16T04:59:14;100148.09;;;22.87;43.94
14293;BME280;62290;59.420;17.842;2022-10-16T05:01:44;100127.47;;;22.78;44.08
14293;BME280;62290;59.420;17.842;2022-10-16T05:04:12;100137.22;;;22.89;43.98
14293;BME280;62290;59.420;17.842;2022-10-16T05:06:42;100140.03;;;22.87;44.08
14293;BME280;62290;59.420;17.842;2022-10-16T05:09:10;100156.16;;;22.87;44.05
14293;BME280;62290;59.420;17.842;2022-10-16T05:11:38;100151.81;;;22.86;44.06
14293;BME280;62290;59.420;17.842;2022-10-16T05:14:05;100155.63;;;22.84;43.92
14293;BME280;62290;59.420;17.842;2022-10-16T05:16:33;100159.97;;;22.85;44.01
14293;BME280;62290;59.420;17.842;2022-10-16T05:19:03;100161.00;;;22.84;44.02
14293;BME280;62290;59.420;17.842;2022-10-16T05:21:51;100146.84;;;22.82;44.02
14293;BME280;62290;59.420;17.842;2022-10-16T05:24:18;100154.88;;;22.82;43.99
14293;BME280;62290;59.420;17.842;2022-10-16T05:26:46;100138.94;;;22.80;44.01
14293;BME280;62290;59.420;17.842;2022-10-16T05:29:14;100141.47;;;22.82;44.26
14293;BME280;62290;59.420;17.842;2022-10-16T05:31:42;100142.59;;;22.79;44.16
14293;BME280;62290;59.420;17.842;2022-10-16T05:34:12;100140.63;;;22.81;44.25
14293;BME280;62290;59.420;17.842;2022-10-16T05:36:40;100143.44;;;22.80;44.14
14293;BME280;62290;59.420;17.842;2022-10-16T05:39:08;100151.66;;;22.78;44.40
14293;BME280;62290;59.420;17.842;2022-10-16T05:41:36;100155.19;;;22.79;44.29
14293;BME280;62290;59.420;17.842;2022-10-16T05:44:04;100160.69;;;22.77;44.32
14293;BME280;62290;59.420;17.842;2022-10-16T05:46:33;100157.16;;;22.77;44.29
14293;BME280;62290;59.420;17.842;2022-10-16T05:49:01;100166.22;;;22.76;44.33
14293;BME280;62290;59.420;17.842;2022-10-16T05:51:31;100168.75;;;22.77;44.37
14293;BME280;62290;59.420;17.842;2022-10-16T05:53:59;100171.59;;;22.76;44.39
14293;BME280;62290;59.420;17.842;2022-10-16T05:56:26;100172.56;;;22.74;44.19
14293;BME280;62290;59.420;17.842;2022-10-16T05:58:54;100168.19;;;22.73;44.31
14293;BME280;62290;59.420;17.842;2022-10-16T06:01:22;100166.50;;;22.72;44.37
14293;BME280;62290;59.420;17.842;2022-10-16T06:03:51;100170.16;;;22.71;44.42
14293;BME280;62290;59.420;17.842;2022-10-16T06:06:21;100168.63;;;22.69;44.51
14293;BME280;62290;59.420;17.842;2022-10-16T06:08:52;100185.31;;;22.72;44.39
14293;BME280;62290;59.420;17.842;2022-10-16T06:11:22;100181.78;;;22.72;44.70
14293;BME280;62290;59.420;17.842;2022-10-16T06:13:51;100178.22;;;22.71;44.51
14293;BME280;62290;59.420;17.842;2022-10-16T06:16:20;100190.97;;;22.69;44.56
14293;BME280;62290;59.420;17.842;2022-10-16T06:18:50;100192.66;;;22.70;44.47
14293;BME280;62290;59.420;17.842;2022-10-16T06:21:20;100189.41;;;22.67;44.50
14293;BME280;62290;59.420;17.842;2022-10-16T06:23:48;100187.00;;;22.64;44.53
14293;BME280;62290;59.420;17.842;2022-10-16T06:26:19;100211.47;;;22.70;44.61
14293;BME280;62290;59.420;17.842;2022-10-16T06:28:47;100212.59;;;22.68;44.58
14293;BME280;62290;59.420;17.842;2022-10-16T06:31:16;100206.22;;;22.69;44.80
14293;BME280;62290;59.420;17.842;2022-10-16T06:33:44;100210.88;;;22.67;44.82
14293;BME280;62290;59.420;17.842;2022-10-16T06:36:15;100211.75;;;22.67;44.67
14293;BME280;62290;59.420;17.842;2022-10-16T06:38:44;100210.72;;;22.68;45.00
14293;BME280;62290;59.420;17.842;2022-10-16T06:41:14;100227.00;;;22.67;44.94
14293;BME280;62290;59.420;17.842;2022-10-16T06:43:44;100214.44;;;22.67;44.79
14293;BME280;62290;59.420;17.842;2022-10-16T06:46:15;100227.00;;;22.67;44.66
14293;BME280;62290;59.420;17.842;2022-10-16T06:48:43;100225.44;;;22.64;44.89
14293;BME280;62290;59.420;17.842;2022-10-16T06:51:13;100231.66;;;22.65;45.12
14293;BME280;62290;59.420;17.842;2022-10-16T06:53:43;100220.94;;;22.65;44.98
14293;BME280;62290;59.420;17.842;2022-10-16T06:56:29;100224.59;;;22.64;44.96
14293;BME280;62290;59.420;17.842;2022-10-16T06:59:00;100229.00;;;22.65;45.00
14293;BME280;62290;59.420;17.842;2022-10-16T07:01:28;100229.00;;;22.65;44.96
14293;BME280;62290;59.420;17.842;2022-10-16T07:03:57;100228.13;;;22.64;45.05
14293;BME280;62290;59.420;17.842;2022-10-16T07:06:26;100226.53;;;22.62;45.13
14293;BME280;62290;59.420;17.842;2022-10-16T07:08:54;100229.97;;;22.64;44.92
14293;BME280;62290;59.420;17.842;2022-10-16T07:11:23;100223.72;;;22.63;45.19
14293;BME280;62290;59.420;17.842;2022-10-16T07:13:51;100230.13;;;22.62;45.05
14293;BME280;62290;59.420;17.842;2022-10-16T07:16:24;100222.91;;;22.63;45.06
14293;BME280;62290;59.420;17.842;2022-10-16T07:18:53;100230.19;;;22.61;45.31
14293;BME280;62290;59.420;17.842;2022-10-16T07:21:26;100230.19;;;22.61;45.15
14293;BME280;62290;59.420;17.842;2022-10-16T07:23:56;100224.84;;;22.61;44.98
14293;BME280;62290;59.420;17.842;2022-10-16T07:26:25;100232.88;;;22.61;45.17
14293;BME280;62290;59.420;17.842;2022-10-16T07:28:54;100230.34;;;22.59;44.97
14293;BME280;62290;59.420;17.842;2022-10-16T07:31:24;100229.34;;;22.60;45.00
14293;BME280;62290;59.420;17.842;2022-10-16T07:33:53;100236.56;;;22.60;45.25
14293;BME280;62290;59.420;17.842;2022-10-16T07:36:21;100233.03;;;22.59;45.07
14293;BME280;62290;59.420;17.842;2022-10-16T07:38:49;100232.19;;;22.59;45.08
14293;BME280;62290;59.420;17.842;2022-10-16T07:41:22;100233.91;;;22.60;44.89
14293;BME280;62290;59.420;17.842;2022-10-16T07:43:52;100239.25;;;22.60;45.29
14293;BME280;62290;59.420;17.842;2022-10-16T07:46:22;100223.84;;;22.52;45.22
14293;BME280;62290;59.420;17.842;2022-10-16T07:48:51;100239.38;;;22.58;45.24
14293;BME280;62290;59.420;17.842;2022-10-16T07:51:22;100230.91;;;22.53;44.98
14293;BME280;62290;59.420;17.842;2022-10-16T07:53:51;100243.78;;;22.59;45.04
14293;BME280;62290;59.420;17.842;2022-10-16T07:56:20;100240.94;;;22.61;45.25
14293;BME280;62290;59.420;17.842;2022-10-16T07:58:49;100246.31;;;22.61;45.20
14293;BME280;62290;59.420;17.842;2022-10-16T08:01:18;100236.44;;;22.61;45.01
14293;BME280;62290;59.420;17.842;2022-10-16T08:03:48;100244.47;;;22.61;45.09
14293;BME280;62290;59.420;17.842;2022-10-16T08:06:19;100243.53;;;22.62;44.99
14293;BME280;62290;59.420;17.842;2022-10-16T08:08:53;100239.25;;;22.60;45.18
14293;BME280;62290;59.420;17.842;2022-10-16T08:11:21;100247.16;;;22.61;44.97
14293;BME280;62290;59.420;17.842;2022-10-16T08:13:50;100249.00;;;22.61;44.96
14293;BME280;62290;59.420;17.842;2022-10-16T08:16:17;100245.47;;;22.60;44.93
14293;BME280;62290;59.420;17.842;2022-10-16T08:18:45;100221.44;;;22.49;44.93
14293;BME280;62290;59.420;17.842;2022-10-16T08:21:15;100255.22;;;22.61;44.81
14293;BME280;62290;59.420;17.842;2022-10-16T08:23:48;100253.41;;;22.62;44.82
14293;BME280;62290;59.420;17.842;2022-10-16T08:26:25;100254.38;;;22.61;44.83
14293;BME280;62290;59.420;17.842;2022-10-16T08:28:53;100257.91;;;22.61;44.92
14293;BME280;62290;59.420;17.842;2022-10-16T08:31:22;100230.47;;;22.48;44.66
14293;BME280;62290;59.420;17.842;2022-10-16T08:33:50;100253.50;;;22.60;44.83
14293;BME280;62290;59.420;17.842;2022-10-16T08:36:19;100248.03;;;22.62;44.73
14293;BME280;62290;59.420;17.842;2022-10-16T08:38:49;100255.22;;;22.61;44.86
14293;BME280;62290;59.420;17.842;2022-10-16T08:41:27;100257.81;;;22.63;44.93
14293;BME280;62290;59.420;17.842;2022-10-16T08:44:22;100264.03;;;22.63;44.71
14293;BME280;62290;59.420;17.842;2022-10-16T08:46:58;100260.59;;;22.61;45.00
14293;BME280;62290;59.420;17.842;2022-10-16T08:49:30;100260.59;;;22.61;44.84
14293;BME280;62290;59.420;17.842;2022-10-16T08:51:59;100268.66;;;22.61;44.66
14293;BME280;62290;59.420;17.842;2022-10-16T08:54:32;100267.72;;;22.62;44.88
14293;BME280;62290;59.420;17.842;2022-10-16T08:57:09;100270.41;;;22.62;44.71
14293;BME280;62290;59.420;17.842;2022-10-16T08:59:39;100264.25;;;22.60;44.82
14293;BME280;62290;59.420;17.842;2022-10-16T09:02:23;100256.81;;;22.64;44.51
14293;BME280;62290;59.420;17.842;2022-10-16T09:05:17;100266.72;;;22.63;44.45
14293;BME280;62290;59.420;17.842;2022-10-16T09:07:55;100261.47;;;22.62;44.67
14293;BME280;62290;59.420;17.842;2022-10-16T09:10:39;100268.56;;;22.63;44.46
14293;BME280;62290;59.420;17.842;2022-10-16T09:13:17;100266.94;;;22.60;44.40
14293;BME280;62290;59.420;17.842;2022-10-16T09:15:52;100272.31;;;22.60;44.73
14293;BME280;62290;59.420;17.842;2022-10-16T09:18:27;100276.63;;;22.63;44.60
14293;BME280;62290;59.420;17.842;2022-10-16T09:21:02;100267.56;;;22.64;44.29
14293;BME280;62290;59.420;17.842;2022-10-16T09:23:36;100267.44;;;22.65;44.85
14293;BME280;62290;59.420;17.842;2022-10-16T09:26:10;100261.78;;;22.68;45.10
14293;BME280;62290;59.420;17.842;2022-10-16T09:28:39;100267.88;;;22.70;45.76
14293;BME280;62290;59.420;17.842;2022-10-16T09:31:13;100265.03;;;22.72;46.39
14293;BME280;62290;59.420;17.842;2022-10-16T09:33:44;100265.75;;;22.74;46.60
14293;BME280;62290;59.420;17.842;2022-10-16T09:36:13;100272.66;;;22.77;46.69
14293;BME280;62290;59.420;17.842;2022-10-16T09:38:41;100270.72;;;22.79;46.41
14293;BME280;62290;59.420;17.842;2022-10-16T09:41:17;100274.97;;;22.81;46.23
14293;BME280;62290;59.420;17.842;2022-10-16T09:43:49;100274.09;;;22.81;46.19
14293;BME280;62290;59.420;17.842;2022-10-16T09:46:26;100272.81;;;22.85;45.95
14293;BME280;62290;59.420;17.842;2022-10-16T09:48:57;100266.59;;;22.84;45.34
14293;BME280;62290;59.420;17.842;2022-10-16T09:51:28;100269.16;;;22.86;45.57
14293;BME280;62290;59.420;17.842;2022-10-16T09:53:59;100268.16;;;22.87;45.42
14293;BME280;62290;59.420;17.842;2022-10-16T09:56:29;100268.88;;;22.89;45.41
14293;BME280;62290;59.420;17.842;2022-10-16T09:59:00;100260.25;;;22.85;45.25
14293;BME280;62290;59.420;17.842;2022-10-16T10:01:32;100259.81;;;22.90;45.26
14293;BME280;62290;59.420;17.842;2022-10-16T10:04:04;100259.81;;;22.90;45.10
14293;BME280;62290;59.420;17.842;2022-10-16T10:06:34;100269.59;;;22.91;44.79
14293;BME280;62290;59.420;17.842;2022-10-16T10:09:06;100262.50;;;22.90;44.73
14293;BME280;62290;59.420;17.842;2022-10-16T10:11:47;100270.44;;;22.91;44.40
14293;BME280;62290;59.420;17.842;2022-10-16T10:14:21;100266.75;;;22.92;44.43
14293;BME280;62290;59.420;17.842;2022-10-16T10:16:51;100267.75;;;22.91;44.32
14293;BME280;62290;59.420;17.842;2022-10-16T10:19:21;100275.81;;;22.91;44.20
14293;BME280;62290;59.420;17.842;2022-10-16T10:21:53;100274.97;;;22.91;44.04
14293;BME280;62290;59.420;17.842;2022-10-16T10:24:21;100271.00;;;22.85;43.85
14293;BME280;62290;59.420;17.842;2022-10-16T10:26:56;100279.22;;;22.93;43.76
14293;BME280;62290;59.420;17.842;2022-10-16T10:29:44;100277.50;;;22.92;43.83
14293;BME280;62290;59.420;17.842;2022-10-16T10:32:25;100272.97;;;22.93;43.38
14293;BME280;62290;59.420;17.842;2022-10-16T10:35:07;100277.50;;;22.92;43.31
14293;BME280;62290;59.420;17.842;2022-10-16T10:37:54;100272.28;;;22.91;43.19
14293;BME280;62290;59.420;17.842;2022-10-16T10:40:37;100281.19;;;22.91;43.29
14293;BME280;62290;59.420;17.842;2022-10-16T10:43:19;100273.97;;;22.92;43.32
14293;BME280;62290;59.420;17.842;2022-10-16T10:45:54;100271.28;;;22.92;43.49
14293;BME280;62290;59.420;17.842;2022-10-16T10:48:42;100264.91;;;22.93;43.65
14293;BME280;62290;59.420;17.842;2022-10-16T10:51:21;100267.59;;;22.93;43.71
14293;BME280;62290;59.420;17.842;2022-10-16T10:53:57;100270.16;;;22.94;43.76
14293;BME280;62290;59.420;17.842;2022-10-16T10:56:42;100254.88;;;22.95;43.75
14293;BME280;62290;59.420;17.842;2022-10-16T10:59:56;100252.34;;;22.93;43.62
14293;BME280;62290;59.420;17.842;2022-10-16T11:02:33;100247.81;;;22.94;43.63
14293;BME280;62290;59.420;17.842;2022-10-16T11:05:27;100251.38;;;22.94;43.62
14293;BME280;62290;59.420;17.842;2022-10-16T11:08:00;100242.56;;;22.92;43.44
14293;BME280;62290;59.420;17.842;2022-10-16T11:10:34;100248.69;;;22.94;43.38
14293;BME280;62290;59.420;17.842;2022-10-16T11:13:15;100244.13;;;22.95;43.19
14293;BME280;62290;59.420;17.842;2022-10-16T11:15:48;100240.63;;;22.94;43.02
14293;BME280;62290;59.420;17.842;2022-10-16T11:18:20;100242.28;;;22.95;43.05
14293;BME280;62290;59.420;17.842;2022-10-16T11:20:52;100238.75;;;22.95;42.99
14293;BME280;62290;59.420;17.842;2022-10-16T11:23:23;100231.81;;;22.92;42.79
14293;BME280;62290;59.420;17.842;2022-10-16T11:25:54;100231.69;;;22.94;42.86
14293;BME280;62290;59.420;17.842;2022-10-16T11:28:27;100237.06;;;22.94;42.90
14293;BME280;62290;59.420;17.842;2022-10-16T11:31:02;100234.50;;;22.92;42.82
14293;BME280;62290;59.420;17.842;2022-10-16T11:33:37;100219.78;;;22.87;42.88
14293;BME280;62290;59.420;17.842;2022-10-16T11:36:12;100231.69;;;22.94;42.77
14293;BME280;62290;59.420;17.842;2022-10-16T11:38:47;100212.47;;;22.89;42.70
14293;BME280;62290;59.420;17.842;2022-10-16T11:41:23;100220.94;;;22.94;42.80
14293;BME280;62290;59.420;17.842;2022-10-16T11:44:00;100226.44;;;22.92;43.14
14293;BME280;62290;59.420;17.842;2022-10-16T11:46:35;100211.34;;;22.91;42.69
14293;BME280;62290;59.420;17.842;2022-10-16T11:49:27;100207.78;;;22.91;42.77
14293;BME280;62290;59.420;17.842;2022-10-16T11:52:07;100204.09;;;22.92;42.66
14293;BME280;62290;59.420;17.842;2022-10-16T11:54:46;100201.72;;;22.89;42.52
14293;BME280;62290;59.420;17.842;2022-10-16T11:57:27;100201.41;;;22.92;42.35
14293;BME280;62290;59.420;17.842;2022-10-16T11:59:58;100195.34;;;22.90;42.62
14293;BME280;62290;59.420;17.842;2022-10-16T12:02:49;100188.97;;;22.91;42.52
14293;BME280;62290;59.420;17.842;2022-10-16T12:05:23;100172.56;;;22.84;42.47
14293;BME280;62290;59.420;17.842;2022-10-16T12:08:01;100175.56;;;22.91;42.29
14293;BME280;62290;59.420;17.842;2022-10-16T12:10:31;100172.28;;;22.87;42.34
14293;BME280;62290;59.420;17.842;2022-10-16T12:13:27;100167.75;;;22.88;42.37
14293;BME280;62290;59.420;17.842;2022-10-16T12:16:07;100169.47;;;22.89;42.20
14293;BME280;62290;59.420;17.842;2022-10-16T12:18:48;100118.69;;;22.57;42.14
14293;BME280;62290;59.420;17.842;2022-10-16T12:21:17;100168.75;;;22.87;42.15
14293;BME280;62290;59.420;17.842;2022-10-16T12:23:50;100161.53;;;22.87;41.96
14293;BME280;62290;59.420;17.842;2022-10-16T12:26:25;100154.50;;;22.86;41.84
14293;BME280;62290;59.420;17.842;2022-10-16T12:28:55;100151.94;;;22.85;41.87
14293;BME280;62290;59.420;17.842;2022-10-16T12:31:43;100152.78;;;22.85;41.89
14293;BME280;62290;59.420;17.842;2022-10-16T12:34:28;100158.31;;;22.84;41.88
14293;BME280;62290;59.420;17.842;2022-10-16T12:37:09;100160.16;;;22.83;41.78
14293;BME280;62290;59.420;17.842;2022-10-16T12:39:38;100150.53;;;22.81;41.85
14293;BME280;62290;59.420;17.842;2022-10-16T12:42:20;100151.22;;;22.83;41.68
14293;BME280;62290;59.420;17.842;2022-10-16T12:44:49;100117.84;;;22.66;42.11
14293;BME280;62290;59.420;17.842;2022-10-16T12:47:22;100132.69;;;22.80;41.70
14293;BME280;62290;59.420;17.842;2022-10-16T12:49:53;100126.63;;;22.78;41.63
14293;BME280;62290;59.420;17.842;2022-10-16T12:52:35;100121.25;;;22.78;41.86
14293;BME280;62290;59.420;17.842;2022-10-16T12:55:05;100117.03;;;22.75;41.92
14293;BME280;62290;59.420;17.842;2022-10-16T12:57:42;100107.13;;;22.76;42.13
14293;BME280;62290;59.420;17.842;2022-10-16T13:00:21;100101.88;;;22.74;42.04
14293;BME280;62290;59.420;17.842;2022-10-16T13:06:04;100097.81;;;22.70;42.12
14293;BME280;62290;59.420;17.842;2022-10-16T13:08:45;100098.66;;;22.70;42.36